Pagina principale
METAR-TAF:

METAR-TAF

Aeroporti :

Pontoise, Francia

latitudine: 49-05-48N, longitudine: 002-02-27E, altezza: 99 m

Osservazione

Il bollettino è stato emesso 23 minuti fa, alle 12:00 UTC
Vento 10 kt da nord-est, variando fra nord e est
Temperature 29°C
Umidità 52%
Pressione 1023 hPa
Visibilità 10 km o più
nessuna nube inferiore a 1500 m e nessun cumulonembo

METAR: LFPT 271200Z AUTO 05010KT 010V100 CAVOK 29/18 Q1023

Ora: 14:23 (12:23 UTC)


TAF: mancante

Osservazioni e previsioni meteorologiche di più di 4000 aeroporti (messaggi METAR e TAF).

Le stazioni disponibili sono rappresentate dai dischi gialli e rossi sulla carta.

Puntare il mouse per vedere il nome della stazione.

Clicca sopra per visualizzare le osservazioni e previsioni meteorologiche.

Per cambiare la mappa : fare clic sui pulsanti verdi con una croce nera per ingrandire, il pulsante verde con un trattino per diminuire, o sulla freccia verde per le mappe adiacenti.


METAR-TAF: